createdAt,value
2023-03-03T00:00:09.411Z,24.63
2023-03-03T00:01:09.321Z,24.61
2023-03-03T00:02:09.337Z,24.65
2023-03-03T00:03:09.399Z,24.60
2023-03-03T00:04:09.243Z,24.62
2023-03-03T00:05:09.189Z,24.61
2023-03-03T00:06:09.160Z,24.57
2023-03-03T00:55:28.589Z,24.48
2023-03-03T00:56:29.526Z,24.44
2023-03-03T00:57:29.480Z,24.49
2023-03-03T00:58:29.455Z,24.45
2023-03-03T00:59:29.408Z,24.45
2023-03-03T01:00:29.373Z,24.49
2023-03-03T01:01:29.375Z,24.47
2023-03-03T01:02:29.343Z,24.45
2023-03-03T01:03:29.307Z,24.43
2023-03-03T01:04:29.253Z,24.45
2023-03-03T01:05:29.228Z,24.43
2023-03-03T01:06:29.197Z,24.45
2023-03-03T01:07:29.165Z,24.45
2023-03-03T01:08:29.132Z,24.45
2023-03-03T01:09:29.102Z,24.46
2023-03-03T01:10:29.067Z,24.44
2023-03-03T01:11:29.056Z,24.43
2023-03-03T01:12:29.012Z,24.41
2023-03-03T01:13:28.982Z,24.44
2023-03-03T01:14:28.979Z,24.40
2023-03-03T01:15:28.900Z,24.47
2023-03-03T01:16:28.958Z,24.40
2023-03-03T01:17:28.841Z,24.40
2023-03-03T01:18:28.816Z,24.45
2023-03-03T01:19:28.776Z,24.45
2023-03-03T01:20:28.734Z,24.41
2023-03-03T01:21:28.702Z,24.40
2023-03-03T01:22:28.681Z,24.43
2023-03-03T01:23:28.646Z,24.41
2023-03-03T01:24:28.609Z,24.40
2023-03-03T01:25:28.572Z,24.39
2023-03-03T01:26:28.521Z,24.40
2023-03-03T01:27:28.521Z,24.40
2023-03-03T01:28:28.446Z,24.36
2023-03-03T01:29:28.401Z,24.39
2023-03-03T01:30:28.365Z,24.36
2023-03-03T01:31:28.395Z,24.43
2023-03-03T01:32:28.377Z,24.33
2023-03-03T01:33:28.266Z,24.37
2023-03-03T01:34:28.231Z,24.39
2023-03-03T01:35:28.240Z,24.39
2023-03-03T01:36:28.161Z,24.31
2023-03-03T01:37:28.141Z,24.40
2023-03-03T01:38:28.101Z,24.41
2023-03-03T01:39:28.079Z,24.33
2023-03-03T01:40:28.046Z,24.34
2023-03-03T01:41:28.012Z,24.39
2023-03-03T01:42:27.966Z,24.34
2023-03-03T01:43:27.977Z,24.39
2023-03-03T01:44:27.898Z,24.32
2023-03-03T01:45:27.858Z,24.34
2023-03-03T01:46:27.908Z,24.35
2023-03-03T01:47:27.789Z,24.33
2023-03-03T01:48:27.750Z,24.33
2023-03-03T01:49:27.713Z,24.35
2023-03-03T01:50:27.677Z,24.36
2023-03-03T01:51:27.663Z,24.34
2023-03-03T01:52:27.638Z,24.34
2023-03-03T01:53:27.587Z,24.35
2023-03-03T01:54:27.553Z,24.30
2023-03-03T01:55:27.521Z,24.33
2023-03-03T01:56:27.474Z,24.29
2023-03-03T01:57:27.445Z,24.31
2023-03-03T01:58:27.413Z,24.30
2023-03-03T01:59:27.457Z,24.30
2023-03-03T02:00:27.334Z,24.31
2023-03-03T02:01:27.400Z,24.33
2023-03-03T02:02:27.345Z,24.34
2023-03-03T02:03:27.231Z,24.33
2023-03-03T02:04:27.206Z,24.30
2023-03-03T02:05:27.163Z,24.33
2023-03-03T02:06:27.802Z,24.34
2023-03-03T02:07:27.102Z,24.34
2023-03-03T02:08:27.056Z,24.36
2023-03-03T02:09:27.018Z,24.31
2023-03-03T02:10:26.980Z,24.35
2023-03-03T02:11:26.964Z,24.30
2023-03-03T02:12:26.921Z,24.33
2023-03-03T02:13:26.878Z,24.34
2023-03-03T02:14:26.835Z,24.30
2023-03-03T02:15:26.823Z,24.30
2023-03-03T02:16:26.812Z,24.33
2023-03-03T02:17:26.722Z,24.28
2023-03-03T02:18:26.686Z,24.27
2023-03-03T02:19:26.665Z,24.30
2023-03-03T02:20:26.632Z,24.29
2023-03-03T02:21:26.593Z,24.28
2023-03-03T02:22:26.566Z,24.28
2023-03-03T02:23:26.535Z,24.26
2023-03-03T02:24:26.505Z,24.24
2023-03-03T02:25:26.470Z,24.29
2023-03-03T02:26:26.433Z,24.26
2023-03-03T02:27:26.391Z,24.27
2023-03-03T02:28:26.349Z,24.23
2023-03-03T02:29:26.320Z,24.28
2023-03-03T02:30:26.305Z,24.29
2023-03-03T02:31:26.402Z,24.27
2023-03-03T02:32:26.328Z,24.28
2023-03-03T02:33:26.189Z,24.23
2023-03-03T02:34:26.157Z,24.27
2023-03-03T02:35:26.197Z,24.27
2023-03-03T02:36:26.138Z,24.27
2023-03-03T02:37:26.072Z,24.31
2023-03-03T02:38:26.035Z,24.28
2023-03-03T02:39:26.007Z,24.27
2023-03-03T02:40:25.975Z,24.31
2023-03-03T02:41:25.967Z,24.30
2023-03-03T02:42:25.908Z,24.24
2023-03-03T02:43:25.877Z,24.25
2023-03-03T02:44:25.847Z,24.28
2023-03-03T02:45:25.913Z,24.23
2023-03-03T02:46:25.772Z,24.31
2023-03-03T02:47:25.804Z,24.26
2023-03-03T02:48:25.801Z,24.30
2023-03-03T02:49:25.685Z,24.24
2023-03-03T02:50:25.646Z,24.24
2023-03-03T02:51:25.612Z,24.27
2023-03-03T02:52:25.634Z,24.26
2023-03-03T02:53:25.554Z,24.26
2023-03-03T02:54:25.541Z,24.20
2023-03-03T02:55:25.504Z,24.23
2023-03-03T02:56:25.466Z,24.23
2023-03-03T02:57:25.471Z,24.23
2023-03-03T02:58:25.423Z,24.23
2023-03-03T02:59:25.394Z,24.23
2023-03-03T03:00:25.368Z,24.19
2023-03-03T03:01:25.398Z,24.24
2023-03-03T03:02:25.285Z,24.26
2023-03-03T03:03:25.303Z,24.26
2023-03-03T03:04:25.299Z,24.26
2023-03-03T03:05:25.206Z,24.26
2023-03-03T03:06:25.179Z,24.23
2023-03-03T03:07:25.147Z,24.27
2023-03-03T03:08:25.118Z,24.26
2023-03-03T03:09:25.091Z,24.23
2023-03-03T03:10:25.046Z,24.20
2023-03-03T03:11:25.011Z,24.22
2023-03-03T03:12:24.981Z,24.20
2023-03-03T03:13:24.955Z,24.19
2023-03-03T03:14:24.934Z,24.24
2023-03-03T03:15:24.899Z,24.23
2023-03-03T03:16:24.952Z,24.19
2023-03-03T03:17:24.901Z,24.24
2023-03-03T03:18:24.868Z,24.20
2023-03-03T03:19:24.841Z,24.20
2023-03-03T03:20:24.744Z,24.23
2023-03-03T03:21:24.722Z,24.22
2023-03-03T03:22:24.703Z,24.22
2023-03-03T03:23:24.674Z,24.17
2023-03-03T03:24:24.642Z,24.20
2023-03-03T03:25:24.607Z,24.24
2023-03-03T03:26:24.560Z,24.20
2023-03-03T03:27:24.530Z,24.24
2023-03-03T03:28:24.529Z,24.22
2023-03-03T03:29:24.476Z,24.19
2023-03-03T03:30:24.436Z,24.23
2023-03-03T03:31:24.406Z,24.26
2023-03-03T03:32:24.393Z,24.16
2023-03-03T03:33:24.382Z,24.23
2023-03-03T03:34:24.300Z,24.22
2023-03-03T03:35:24.322Z,24.18
2023-03-03T03:36:24.250Z,24.17
2023-03-03T03:37:24.210Z,24.22
2023-03-03T03:38:24.166Z,24.20
2023-03-03T03:39:24.143Z,24.19
2023-03-03T03:40:24.107Z,24.22
2023-03-03T03:41:24.083Z,24.18
2023-03-03T03:42:24.050Z,24.19
2023-03-03T03:43:24.001Z,24.19
2023-03-03T03:44:23.973Z,24.20
2023-03-03T03:45:23.922Z,24.19
2023-03-03T03:46:23.933Z,24.19
2023-03-03T03:47:23.857Z,24.20
2023-03-03T03:48:23.821Z,24.19
2023-03-03T03:49:23.772Z,24.16
2023-03-03T03:50:23.740Z,24.18
2023-03-03T03:51:23.745Z,24.18
2023-03-03T03:52:23.669Z,24.16
2023-03-03T03:53:23.638Z,24.16
2023-03-03T03:54:23.608Z,24.20
2023-03-03T03:55:23.591Z,24.17
2023-03-03T03:56:23.521Z,24.13
2023-03-03T03:57:25.645Z,24.18
2023-03-03T03:58:23.477Z,24.13
2023-03-03T03:59:23.438Z,24.16
2023-03-03T04:00:23.406Z,24.13
2023-03-03T04:01:23.382Z,24.14
2023-03-03T04:02:23.470Z,24.15
2023-03-03T04:03:23.415Z,24.17
2023-03-03T04:04:23.287Z,24.16
2023-03-03T04:05:23.254Z,24.17
2023-03-03T04:06:23.211Z,24.16
2023-03-03T04:07:23.221Z,24.13
2023-03-03T04:08:23.141Z,24.17
2023-03-03T04:09:23.121Z,24.16
2023-03-03T04:10:23.074Z,24.19
2023-03-03T04:11:23.036Z,24.15
2023-03-03T04:12:23.014Z,24.17
2023-03-03T04:13:22.985Z,24.19
2023-03-03T04:14:22.961Z,24.10
2023-03-03T04:15:22.944Z,24.15
2023-03-03T04:16:22.899Z,24.12
2023-03-03T04:17:22.862Z,24.16
2023-03-03T04:18:22.840Z,24.12
2023-03-03T04:19:22.815Z,24.12
2023-03-03T04:20:22.789Z,24.17
2023-03-03T04:21:22.753Z,24.16
2023-03-03T04:23:22.735Z,24.13
2023-03-03T04:24:22.692Z,24.17
2023-03-03T04:25:22.666Z,24.16
2023-03-03T04:26:22.641Z,24.17
2023-03-03T04:27:22.607Z,24.17
2023-03-03T04:28:22.598Z,24.14
2023-03-03T04:29:22.533Z,24.14
2023-03-03T04:30:22.520Z,24.10
2023-03-03T04:31:22.519Z,24.16
2023-03-03T04:32:22.454Z,24.13
2023-03-03T04:33:22.408Z,24.14
2023-03-03T04:34:22.367Z,24.15
2023-03-03T04:35:22.414Z,24.09
2023-03-03T04:36:22.315Z,24.09
2023-03-03T04:37:22.283Z,24.09
2023-03-03T04:38:22.267Z,24.12
2023-03-03T04:39:22.221Z,24.15
2023-03-03T04:40:22.190Z,24.10
2023-03-03T04:41:22.167Z,24.10
2023-03-03T04:42:22.106Z,24.13
2023-03-03T04:43:22.070Z,24.10
2023-03-03T04:44:22.028Z,24.10
2023-03-03T04:45:22.002Z,24.09
2023-03-03T04:46:21.985Z,24.06
2023-03-03T04:47:21.938Z,24.10
2023-03-03T04:48:21.881Z,24.06
2023-03-03T04:49:21.849Z,24.09
2023-03-03T04:50:21.831Z,24.09
2023-03-03T04:51:21.782Z,24.06
2023-03-03T04:52:21.769Z,24.03
2023-03-03T04:53:21.707Z,24.06
2023-03-03T04:54:22.422Z,24.06
2023-03-03T04:55:21.634Z,24.02
2023-03-03T04:56:21.589Z,24.05
2023-03-03T04:57:21.558Z,24.02
2023-03-03T04:58:21.528Z,24.05
2023-03-03T04:59:21.492Z,24.05
2023-03-03T05:00:21.461Z,24.02
2023-03-03T05:01:21.667Z,24.03
2023-03-03T05:02:21.384Z,24.06
2023-03-03T05:03:21.340Z,24.03
2023-03-03T05:04:21.342Z,24.05
2023-03-03T05:05:21.278Z,23.99
2023-03-03T05:06:21.239Z,23.99
2023-03-03T05:07:21.213Z,24.03
2023-03-03T05:08:21.200Z,24.06
2023-03-03T05:09:21.152Z,23.98
2023-03-03T05:10:21.229Z,24.07
2023-03-03T05:11:21.091Z,24.05
2023-03-03T05:12:21.052Z,24.02
2023-03-03T05:13:21.008Z,23.98
2023-03-03T05:14:20.982Z,24.06
2023-03-03T05:15:20.928Z,23.99
2023-03-03T05:16:20.994Z,23.99
2023-03-03T05:17:20.848Z,24.02
2023-03-03T05:18:20.818Z,24.04
2023-03-03T05:19:20.791Z,23.99
2023-03-03T05:20:20.792Z,23.95
2023-03-03T05:21:20.748Z,23.98
2023-03-03T05:22:20.714Z,23.96
2023-03-03T05:23:20.685Z,23.97
2023-03-03T05:24:20.677Z,23.96
2023-03-03T05:25:20.627Z,23.95
2023-03-03T05:26:20.624Z,23.99
2023-03-03T05:27:20.578Z,23.96
2023-03-03T05:28:20.556Z,23.96
2023-03-03T05:29:20.495Z,24.01
2023-03-03T05:30:20.471Z,23.97
2023-03-03T05:31:20.489Z,23.99
2023-03-03T05:32:20.521Z,23.99
2023-03-03T05:33:20.389Z,23.99
2023-03-03T05:34:20.353Z,23.95
2023-03-03T05:35:20.340Z,23.95
2023-03-03T05:36:20.289Z,23.92
2023-03-03T05:37:20.263Z,23.94
2023-03-03T05:38:20.228Z,23.94
2023-03-03T05:39:20.205Z,23.96
2023-03-03T05:40:20.150Z,23.99
2023-03-03T05:41:20.111Z,23.94
2023-03-03T05:42:20.132Z,23.92
2023-03-03T05:43:20.058Z,23.85
2023-03-03T05:44:20.766Z,23.89
2023-03-03T05:45:20.016Z,23.94
2023-03-03T05:46:20.039Z,23.97
2023-03-03T05:47:19.958Z,23.99
2023-03-03T05:48:19.913Z,23.91
2023-03-03T05:49:19.866Z,23.95
2023-03-03T05:50:19.844Z,23.85
2023-03-03T05:51:19.814Z,23.89
2023-03-03T05:52:19.791Z,23.95
2023-03-03T05:53:19.743Z,23.91
2023-03-03T05:54:19.710Z,23.89
2023-03-03T05:55:19.646Z,23.89
2023-03-03T05:56:19.606Z,23.89
2023-03-03T05:57:19.578Z,23.88
2023-03-03T05:58:19.578Z,23.84
2023-03-03T05:59:19.544Z,23.88
2023-03-03T06:00:19.506Z,23.86
2023-03-03T06:01:19.476Z,23.86
2023-03-03T06:02:19.426Z,23.91
2023-03-03T06:03:19.441Z,23.86
2023-03-03T06:04:19.924Z,23.89
2023-03-03T06:05:19.339Z,23.88
2023-03-03T06:06:19.358Z,23.88
2023-03-03T06:07:19.267Z,23.84
2023-03-03T06:08:19.233Z,23.84
2023-03-03T06:09:19.200Z,23.85
2023-03-03T06:10:19.172Z,23.86
2023-03-03T06:11:19.138Z,23.88
2023-03-03T06:12:19.086Z,23.85
2023-03-03T06:13:19.039Z,23.86
2023-03-03T06:14:19.026Z,23.79
2023-03-03T06:15:18.999Z,23.82
2023-03-03T06:16:18.950Z,23.85
2023-03-03T06:17:18.956Z,23.85
2023-03-03T06:18:18.867Z,23.84
2023-03-03T06:19:18.836Z,23.84
2023-03-03T06:20:18.792Z,23.86
2023-03-03T06:21:18.924Z,23.97
2023-03-03T06:22:18.723Z,23.99
2023-03-03T06:23:18.667Z,23.95
2023-03-03T06:24:18.616Z,23.95
2023-03-03T06:25:18.583Z,23.91
2023-03-03T06:26:18.573Z,23.95
2023-03-03T06:27:18.519Z,23.94
2023-03-03T06:28:18.511Z,23.86
2023-03-03T06:29:18.464Z,23.88
2023-03-03T06:30:18.439Z,23.85
2023-03-03T06:31:18.448Z,23.90
2023-03-03T06:32:18.349Z,23.91
2023-03-03T06:33:18.292Z,23.85
2023-03-03T06:34:18.257Z,23.88
2023-03-03T06:35:18.325Z,23.83
2023-03-03T06:36:18.434Z,23.95
2023-03-03T06:37:18.152Z,23.94
2023-03-03T06:38:18.109Z,23.81
2023-03-03T06:39:18.051Z,23.86
2023-03-03T06:40:18.439Z,23.86
2023-03-03T06:41:17.962Z,23.88
2023-03-03T06:42:18.519Z,23.93
2023-03-03T06:43:17.897Z,23.90
2023-03-03T06:44:17.855Z,23.98
2023-03-03T06:45:17.949Z,24.05
2023-03-03T06:46:17.959Z,24.07
2023-03-03T06:47:17.739Z,24.09
2023-03-03T06:48:17.702Z,24.20
2023-03-03T06:49:17.683Z,24.20
2023-03-03T06:50:17.619Z,24.29
2023-03-03T06:51:17.934Z,24.32
2023-03-03T06:52:17.929Z,24.54
2023-03-03T06:53:17.548Z,24.67
2023-03-03T06:54:17.475Z,24.90
2023-03-03T06:55:17.481Z,25.01
2023-03-03T06:56:18.403Z,25.17
2023-03-03T06:57:17.449Z,25.31
2023-03-03T06:58:17.343Z,25.47
2023-03-03T06:59:17.326Z,25.77
2023-03-03T07:00:17.484Z,25.73
2023-03-03T07:01:17.264Z,24.00
2023-03-03T07:02:17.507Z,23.46
2023-03-03T07:04:17.351Z,23.10
2023-03-03T07:05:18.058Z,23.10
2023-03-03T07:06:17.195Z,23.15
2023-03-03T07:07:17.156Z,23.03
2023-03-03T07:08:17.472Z,23.14
2023-03-03T07:09:17.276Z,23.58
2023-03-03T07:10:17.166Z,23.82
2023-03-03T07:11:17.151Z,24.29
2023-03-03T07:12:17.198Z,24.52
2023-03-03T07:13:17.128Z,24.67
2023-03-03T07:14:17.138Z,24.59
2023-03-03T07:15:18.131Z,24.56
2023-03-03T07:16:17.152Z,24.73
2023-03-03T07:17:17.151Z,24.78
2023-03-03T07:18:17.483Z,25.04
2023-03-03T07:19:17.094Z,25.44
2023-03-03T07:20:17.090Z,25.31
2023-03-03T07:21:17.068Z,25.44
2023-03-03T07:22:17.059Z,25.57
2023-03-03T07:23:21.397Z,25.63
2023-03-03T07:24:17.026Z,26.03
2023-03-03T07:25:16.996Z,25.85
2023-03-03T07:26:16.980Z,25.93
2023-03-03T07:27:16.995Z,26.01
2023-03-03T07:28:16.941Z,25.95
2023-03-03T07:29:24.002Z,26.04
2023-03-03T07:30:16.880Z,26.15
2023-03-03T07:31:16.933Z,26.19
2023-03-03T07:32:16.877Z,26.40
2023-03-03T07:33:16.788Z,26.41
2023-03-03T07:34:17.026Z,26.45
2023-03-03T07:35:16.730Z,26.49
2023-03-03T07:36:16.699Z,26.56
2023-03-03T07:37:16.663Z,26.64
2023-03-03T07:38:16.607Z,26.83
2023-03-03T07:39:17.000Z,26.88
2023-03-03T07:40:16.523Z,26.96
2023-03-03T07:41:16.497Z,27.07
2023-03-03T07:42:16.476Z,27.11
2023-03-03T07:43:16.440Z,27.11
2023-03-03T07:44:16.420Z,27.18
2023-03-03T07:45:16.497Z,27.33
2023-03-03T07:46:16.435Z,27.42
2023-03-03T07:47:19.518Z,27.42
2023-03-03T07:48:16.284Z,27.49
2023-03-03T07:49:16.496Z,27.53
2023-03-03T07:50:16.259Z,27.74
2023-03-03T07:51:16.206Z,27.78
2023-03-03T07:52:16.153Z,27.90
2023-03-03T07:53:16.507Z,28.12
2023-03-03T07:54:16.091Z,28.02
2023-03-03T07:55:16.984Z,28.24
2023-03-03T07:56:16.021Z,28.45
2023-03-03T07:57:16.982Z,28.48
2023-03-03T07:58:15.987Z,28.68
2023-03-03T07:59:16.901Z,28.69
2023-03-03T08:00:16.006Z,28.74
2023-03-03T08:01:15.829Z,28.80
2023-03-03T08:02:16.093Z,28.85
2023-03-03T08:03:16.120Z,28.88
2023-03-03T08:04:15.860Z,28.90
2023-03-03T08:05:16.141Z,28.99
2023-03-03T08:06:15.723Z,29.04
2023-03-03T08:07:15.650Z,29.13
2023-03-03T08:08:15.635Z,29.18
2023-03-03T08:09:16.022Z,29.31
2023-03-03T08:10:16.029Z,29.37
2023-03-03T08:11:15.526Z,29.49
2023-03-03T08:12:15.476Z,29.61
2023-03-03T08:13:15.434Z,29.73
2023-03-03T08:14:15.421Z,29.75
2023-03-03T08:15:15.502Z,29.93
2023-03-03T08:16:15.430Z,29.99
2023-03-03T08:17:15.315Z,30.08
2023-03-03T08:18:15.549Z,30.37
2023-03-03T08:19:15.653Z,30.44
2023-03-03T08:20:15.712Z,30.46
2023-03-03T08:21:15.703Z,30.50
2023-03-03T08:22:15.457Z,30.39
2023-03-03T08:23:15.762Z,30.67
2023-03-03T08:24:15.350Z,30.68
2023-03-03T08:25:14.986Z,30.68
2023-03-03T08:26:14.948Z,30.67
2023-03-03T08:27:14.887Z,30.65
2023-03-03T08:28:15.003Z,30.61
2023-03-03T08:29:14.816Z,30.57
2023-03-03T08:30:14.755Z,30.63
2023-03-03T08:31:22.613Z,30.70
2023-03-03T08:32:14.806Z,30.85
2023-03-03T08:33:14.988Z,30.74
2023-03-03T08:34:14.592Z,30.78
2023-03-03T08:35:14.565Z,30.94
2023-03-03T08:36:14.538Z,31.02
2023-03-03T08:37:14.501Z,31.06
2023-03-03T08:38:14.506Z,31.05
2023-03-03T08:39:14.442Z,31.03
2023-03-03T08:40:14.374Z,31.12
2023-03-03T08:41:14.328Z,31.02
2023-03-03T08:42:16.237Z,31.27
2023-03-03T08:43:14.236Z,31.27
2023-03-03T08:44:14.198Z,31.24
2023-03-03T08:45:14.162Z,31.39
2023-03-03T08:46:14.182Z,31.38
2023-03-03T08:47:14.485Z,31.56
2023-03-03T08:48:14.030Z,31.69
2023-03-03T08:49:13.980Z,31.70
2023-03-03T08:50:14.000Z,31.72
2023-03-03T08:51:13.870Z,31.73
2023-03-03T08:52:13.828Z,31.66
2023-03-03T08:53:13.773Z,31.74
2023-03-03T08:54:13.763Z,31.65
2023-03-03T08:55:14.030Z,24.96
2023-03-03T08:56:13.663Z,23.71
2023-03-03T08:57:13.644Z,23.04
2023-03-03T08:58:16.845Z,23.33
2023-03-03T08:59:15.012Z,24.57
2023-03-03T09:00:13.568Z,25.43
2023-03-03T09:01:13.537Z,25.85
2023-03-03T09:02:14.997Z,26.37
2023-03-03T09:03:13.493Z,26.36
2023-03-03T09:04:13.550Z,26.55
2023-03-03T09:05:13.483Z,26.70
2023-03-03T09:06:13.416Z,26.93
2023-03-03T09:07:14.393Z,27.21
2023-03-03T09:08:13.361Z,27.41
2023-03-03T09:09:13.506Z,27.60
2023-03-03T09:10:13.350Z,27.82
2023-03-03T09:11:13.298Z,27.87
2023-03-03T09:12:13.284Z,27.94
2023-03-03T09:13:13.535Z,28.03
2023-03-03T09:14:13.240Z,28.06
2023-03-03T09:15:13.218Z,28.14
2023-03-03T09:16:13.395Z,28.36
2023-03-03T09:17:13.131Z,28.37
2023-03-03T09:18:13.533Z,28.43
2023-03-03T09:19:13.137Z,28.53
2023-03-03T09:20:13.006Z,28.66
2023-03-03T09:21:12.961Z,28.62
2023-03-03T09:22:12.922Z,28.79
2023-03-03T09:23:13.134Z,28.79
2023-03-03T09:24:12.849Z,28.90
2023-03-03T09:25:13.828Z,28.98
2023-03-03T09:26:13.200Z,28.99
2023-03-03T09:27:12.709Z,29.06
2023-03-03T09:28:13.179Z,29.20
2023-03-03T09:29:12.629Z,29.28
2023-03-03T09:30:12.595Z,29.41
2023-03-03T09:31:13.078Z,29.55
2023-03-03T09:32:12.568Z,29.60
2023-03-03T09:33:12.713Z,29.80
2023-03-03T09:34:12.803Z,29.89
2023-03-03T09:35:12.402Z,27.07
2023-03-03T09:36:12.374Z,22.58
2023-03-03T09:37:15.337Z,21.56
2023-03-03T09:38:12.328Z,21.66
2023-03-03T09:39:12.304Z,21.66
2023-03-03T09:40:12.399Z,22.00
2023-03-03T09:41:12.283Z,21.94
2023-03-03T09:42:12.757Z,22.24
2023-03-03T09:43:12.386Z,22.69
2023-03-03T09:44:15.464Z,22.89
2023-03-03T09:45:12.284Z,23.04
2023-03-03T09:46:12.294Z,23.45
2023-03-03T09:47:13.441Z,24.20
2023-03-03T09:48:12.343Z,24.67
2023-03-03T09:49:12.553Z,24.92
2023-03-03T09:50:12.505Z,24.98
2023-03-03T09:51:12.671Z,24.85
2023-03-03T09:52:12.830Z,24.65
2023-03-03T09:53:12.244Z,24.45
2023-03-03T09:54:12.613Z,24.60
2023-03-03T09:55:12.185Z,24.40
2023-03-03T09:56:12.189Z,24.20
2023-03-03T09:57:12.182Z,24.14
2023-03-03T09:58:14.168Z,24.31
2023-03-03T09:59:12.712Z,24.10
2023-03-03T10:00:12.052Z,23.97
2023-03-03T10:01:12.123Z,24.08
2023-03-03T10:02:12.283Z,24.00
2023-03-03T10:03:12.008Z,24.14
2023-03-03T10:04:12.094Z,23.95
2023-03-03T10:05:14.093Z,23.99
2023-03-03T10:06:11.854Z,23.97
2023-03-03T10:07:11.835Z,23.58
2023-03-03T10:08:11.812Z,23.51
2023-03-03T10:09:12.054Z,23.36
2023-03-03T10:10:11.765Z,23.35
2023-03-03T10:11:12.023Z,23.20
2023-03-03T10:12:11.724Z,23.18
2023-03-03T10:13:11.716Z,23.00
2023-03-03T10:14:11.868Z,23.09
2023-03-03T10:15:12.024Z,23.62
2023-03-03T10:16:11.676Z,23.33
2023-03-03T10:17:11.582Z,23.27
2023-03-03T10:18:11.599Z,23.11
2023-03-03T10:19:11.569Z,23.38
2023-03-03T10:20:11.520Z,23.44
2023-03-03T10:21:11.464Z,23.66
2023-03-03T10:22:11.436Z,23.96
2023-03-03T10:23:11.406Z,24.17
2023-03-03T10:24:11.381Z,24.47
2023-03-03T10:25:11.526Z,24.52
2023-03-03T10:26:11.318Z,24.63
2023-03-03T10:27:14.276Z,24.74
2023-03-03T10:28:11.267Z,24.86
2023-03-03T10:29:11.236Z,25.00
2023-03-03T10:30:11.558Z,25.21
2023-03-03T10:31:15.578Z,25.16
2023-03-03T10:32:11.318Z,25.33
2023-03-03T10:33:11.351Z,25.37
2023-03-03T10:34:11.058Z,25.47
2023-03-03T10:35:11.529Z,25.46
2023-03-03T10:36:11.139Z,25.48
2023-03-03T10:37:10.948Z,25.45
2023-03-03T10:38:11.028Z,25.48
2023-03-03T10:39:10.917Z,25.47
2023-03-03T10:40:10.999Z,25.44
2023-03-03T10:41:10.812Z,25.55
2023-03-03T10:42:10.772Z,25.55
2023-03-03T10:43:15.324Z,25.57
2023-03-03T10:44:10.702Z,25.71
2023-03-03T10:45:10.686Z,25.85
2023-03-03T10:46:10.765Z,25.95
2023-03-03T10:47:11.582Z,26.23
2023-03-03T10:48:11.048Z,26.31
2023-03-03T10:49:10.522Z,26.40
2023-03-03T10:50:10.466Z,26.48
2023-03-03T10:51:13.650Z,26.66
2023-03-03T10:52:10.422Z,26.68
2023-03-03T10:53:10.534Z,26.88
2023-03-03T10:54:10.322Z,27.00
2023-03-03T10:55:10.294Z,26.99
2023-03-03T10:56:10.268Z,27.05
2023-03-03T10:57:10.214Z,27.25
2023-03-03T10:58:10.538Z,27.39
2023-03-03T10:59:10.128Z,27.49
2023-03-03T11:00:10.100Z,27.58
2023-03-03T11:01:10.111Z,27.74
2023-03-03T11:02:10.011Z,27.71
2023-03-03T11:03:09.949Z,27.84
2023-03-03T11:04:10.015Z,27.85
2023-03-03T11:05:09.860Z,27.99
2023-03-03T11:06:09.816Z,28.12
2023-03-03T11:07:09.829Z,28.20
2023-03-03T11:08:10.058Z,28.27
2023-03-03T11:09:09.693Z,28.42
2023-03-03T11:10:09.637Z,28.46
2023-03-03T11:11:10.047Z,28.56
2023-03-03T11:12:09.585Z,28.70
2023-03-03T11:13:09.513Z,28.74
2023-03-03T11:14:09.474Z,28.81
2023-03-03T11:15:09.455Z,28.98
2023-03-03T11:16:09.392Z,29.06
2023-03-03T11:17:09.554Z,29.12
2023-03-03T11:18:09.589Z,29.21
2023-03-03T11:19:09.260Z,29.32
2023-03-03T11:20:09.233Z,29.37
2023-03-03T11:21:09.161Z,29.40
2023-03-03T11:22:09.122Z,29.55
2023-03-03T11:23:09.548Z,29.65
2023-03-03T11:24:09.079Z,29.83
2023-03-03T11:25:09.551Z,29.72
2023-03-03T11:26:08.918Z,29.82
2023-03-03T11:27:09.050Z,25.15
2023-03-03T11:28:09.054Z,23.80
2023-03-03T11:29:08.837Z,25.81
2023-03-03T11:30:09.053Z,26.23
2023-03-03T11:31:09.142Z,27.25
2023-03-03T11:32:08.835Z,25.42
2023-03-03T11:33:08.786Z,24.81
2023-03-03T11:34:08.809Z,24.98
2023-03-03T11:35:09.050Z,25.33
2023-03-03T11:36:08.845Z,25.98
2023-03-03T11:37:08.832Z,26.27
2023-03-03T11:38:08.853Z,26.73
2023-03-03T11:39:08.874Z,27.02
2023-03-03T11:40:09.056Z,27.51
2023-03-03T11:41:08.962Z,27.83
2023-03-03T11:42:08.979Z,28.16
2023-03-03T11:43:09.029Z,28.45
2023-03-03T11:44:09.050Z,28.60
2023-03-03T11:45:09.556Z,28.74
2023-03-03T11:46:09.156Z,28.95
2023-03-03T11:47:09.157Z,29.19
2023-03-03T11:48:09.187Z,29.11
2023-03-03T11:49:09.208Z,28.95
2023-03-03T11:50:09.270Z,28.72
2023-03-03T11:51:09.255Z,28.52
2023-03-03T11:52:09.275Z,28.29
2023-03-03T11:53:09.289Z,28.03
2023-03-03T11:54:09.369Z,27.89
2023-03-03T11:55:09.335Z,27.69
2023-03-03T11:56:09.294Z,27.47
2023-03-03T11:57:09.603Z,27.18
2023-03-03T11:58:09.296Z,26.95
2023-03-03T11:59:09.289Z,26.77
2023-03-03T12:00:09.301Z,26.54
2023-03-03T12:01:09.282Z,26.31
2023-03-03T12:02:09.569Z,26.28
2023-03-03T12:03:09.255Z,26.17
2023-03-03T12:04:09.590Z,25.93
2023-03-03T12:05:09.246Z,25.74
2023-03-03T12:06:12.150Z,25.61
2023-03-03T12:07:18.451Z,25.54
2023-03-03T12:08:09.219Z,25.47
2023-03-03T12:09:09.187Z,25.38
2023-03-03T12:10:09.187Z,25.22
2023-03-03T12:11:09.215Z,25.13
2023-03-03T12:12:09.562Z,25.04
2023-03-03T12:13:09.096Z,24.99
2023-03-03T12:14:09.095Z,24.94
2023-03-03T12:15:09.051Z,24.89
2023-03-03T12:16:09.115Z,24.89
2023-03-03T12:17:09.077Z,24.80
2023-03-03T12:18:09.038Z,24.72
2023-03-03T12:19:09.003Z,24.73
2023-03-03T12:20:08.944Z,24.62
2023-03-03T12:21:09.096Z,24.64
2023-03-03T12:22:09.655Z,24.60
2023-03-03T12:23:08.906Z,24.56
2023-03-03T12:24:09.515Z,24.48
2023-03-03T12:25:08.894Z,24.50
2023-03-03T12:26:09.071Z,24.46
2023-03-03T12:27:08.930Z,24.43
2023-03-03T12:28:09.165Z,24.40
2023-03-03T12:29:08.725Z,24.42
2023-03-03T12:30:08.696Z,24.44
2023-03-03T12:31:08.767Z,24.40
2023-03-03T12:32:08.680Z,24.37
2023-03-03T12:33:08.750Z,24.33
2023-03-03T12:34:08.612Z,24.35
2023-03-03T12:35:08.574Z,24.32
2023-03-03T12:36:08.573Z,24.37
2023-03-03T12:37:08.593Z,24.29
2023-03-03T12:38:08.506Z,24.28
2023-03-03T12:39:08.451Z,24.25
2023-03-03T12:40:08.602Z,24.29
2023-03-03T12:41:08.409Z,24.27
2023-03-03T12:42:08.393Z,24.28
2023-03-03T12:43:08.367Z,24.30
2023-03-03T12:44:08.351Z,24.23
2023-03-03T12:45:08.577Z,24.23
2023-03-03T12:46:08.300Z,24.19
2023-03-03T12:47:08.372Z,24.22
2023-03-03T12:48:08.234Z,24.26
2023-03-03T12:49:08.203Z,24.16
2023-03-03T12:50:08.562Z,24.19
2023-03-03T12:51:08.154Z,24.20
2023-03-03T12:52:08.124Z,24.22
2023-03-03T12:53:10.831Z,24.21
2023-03-03T12:54:09.610Z,24.22
2023-03-03T12:55:08.112Z,24.21
2023-03-03T12:56:08.036Z,24.21
2023-03-03T12:57:08.012Z,24.22
2023-03-03T12:58:07.995Z,24.24
2023-03-03T12:59:07.962Z,24.19
2023-03-03T13:00:07.939Z,24.24
2023-03-03T13:01:08.067Z,24.25
2023-03-03T13:02:07.900Z,24.25
2023-03-03T13:03:08.035Z,24.22
2023-03-03T13:04:08.141Z,24.27
2023-03-03T13:05:07.798Z,24.25
2023-03-03T13:06:07.763Z,24.25
2023-03-03T13:07:07.771Z,24.25
2023-03-03T13:08:07.963Z,24.27
2023-03-03T13:09:08.090Z,24.24
2023-03-03T13:10:07.708Z,24.24
2023-03-03T13:11:07.623Z,24.25
2023-03-03T13:12:07.601Z,24.27
2023-03-03T13:13:07.592Z,24.27
2023-03-03T13:14:07.550Z,24.28
2023-03-03T13:15:07.515Z,24.30
2023-03-03T13:16:08.980Z,24.27
2023-03-03T13:17:07.497Z,24.28
2023-03-03T13:18:07.463Z,24.31
2023-03-03T13:19:07.414Z,24.33
2023-03-03T13:20:07.399Z,24.30
2023-03-03T13:21:07.588Z,24.30
2023-03-03T13:22:07.338Z,24.31
2023-03-03T13:23:07.307Z,24.31
2023-03-03T13:24:07.598Z,24.34
2023-03-03T13:25:07.259Z,24.34
2023-03-03T13:26:07.256Z,24.31
2023-03-03T13:27:07.209Z,24.35
2023-03-03T13:28:07.185Z,24.39
2023-03-03T13:29:07.143Z,24.34
2023-03-03T13:30:07.154Z,24.39
2023-03-03T13:31:07.617Z,24.37
2023-03-03T13:32:07.180Z,24.36
2023-03-03T13:33:07.092Z,24.37
2023-03-03T13:34:07.097Z,24.40
2023-03-03T13:35:07.033Z,24.39
2023-03-03T13:36:07.118Z,24.38
2023-03-03T13:37:06.981Z,24.40
2023-03-03T13:38:06.914Z,24.37
2023-03-03T13:39:06.870Z,24.40
2023-03-03T13:40:06.838Z,24.45
2023-03-03T13:41:06.819Z,24.42
2023-03-03T13:42:07.121Z,24.39